Time;durP1;ratioP1;P1;durP2;ratioP2;P2;SDS_P1;SDS_P2;PMS_P1;PMS_P2;Temp;Humidity;BMP_temperature;BMP_pressure;BME280_temperature;BME280_humidity;BME280_pressure;Samples;Min_cycle;Max_cycle;Signal;HPM_P1;HPM_P2
2022/07/25 00:01:07;;;;;;;5.03;2.40;;;22.40;1.00;;;;;;5014140;28;20041;-43
2022/07/25 00:03:33;;;;;;;5.57;2.42;;;21.60;1.00;;;;;;5001287;28;20049;-43
2022/07/25 00:06:01;;;;;;;6.32;2.78;;;21.60;1.00;;;;;;5001096;28;20129;-43
2022/07/25 00:08:26;;;;;;;7.43;2.63;;;22.50;1.00;;;;;;5003786;28;20045;-48
2022/07/25 00:10:52;;;;;;;4.47;2.28;;;21.70;1.00;;;;;;5001350;28;20111;-44
2022/07/25 00:13:18;;;;;;;5.68;2.53;;;21.70;1.00;;;;;;5009901;28;20073;-46
2022/07/25 00:15:43;;;;;;;4.10;2.30;;;22.00;1.00;;;;;;5012083;28;20375;-44
2022/07/25 00:18:09;;;;;;;5.43;2.60;;;21.60;1.00;;;;;;5000903;28;20092;-43
2022/07/25 00:20:37;;;;;;;4.20;2.45;;;22.80;1.00;;;;;;5010072;28;20046;-44
2022/07/25 00:23:04;;;;;;;6.57;2.22;;;21.80;1.00;;;;;;5011877;28;20037;-43
2022/07/25 00:25:30;;;;;;;4.13;2.35;;;21.70;1.00;;;;;;5011736;28;20041;-44
2022/07/25 00:27:55;;;;;;;4.70;2.83;;;21.70;1.00;;;;;;5000770;28;20687;-44
2022/07/25 00:30:21;;;;;;;5.68;2.63;;;22.30;1.00;;;;;;5000702;28;20420;-43
2022/07/25 00:32:47;;;;;;;4.57;2.53;;;21.70;1.00;;;;;;4999858;28;20057;-44
2022/07/25 00:35:12;;;;;;;8.10;2.58;;;21.70;1.00;;;;;;5000436;28;20076;-44
2022/07/25 00:37:40;;;;;;;8.40;2.88;;;21.60;1.00;;;;;;5000044;28;20072;-45
2022/07/25 00:40:07;;;;;;;4.60;2.70;;;22.00;1.00;;;;;;4999991;28;20045;-45
2022/07/25 00:42:32;;;;;;;4.60;2.38;;;21.80;1.00;;;;;;5000344;28;20056;-44
2022/07/25 00:44:58;;;;;;;5.60;2.60;;;21.80;1.00;;;;;;5006797;28;20121;-43
2022/07/25 00:47:24;;;;;;;4.38;2.78;;;21.60;1.00;;;;;;5009404;28;20054;-45
2022/07/25 00:49:50;;;;;;;5.45;2.63;;;21.80;1.00;;;;;;5000386;28;20109;-45
2022/07/25 00:52:16;;;;;;;3.60;2.30;;;23.70;1.00;;;;;;5000057;28;20365;-44
2022/07/25 00:54:42;;;;;;;8.80;3.50;;;21.60;1.00;;;;;;5000089;28;20290;-43
2022/07/25 00:57:07;;;;;;;4.28;2.80;;;21.60;1.00;;;;;;5005836;28;20046;-43
2022/07/25 00:59:36;;;;;;;7.25;3.22;;;23.80;1.00;;;;;;5000450;28;20041;-44
2022/07/25 01:02:02;;;;;;;6.43;2.95;;;21.70;1.00;;;;;;5009457;28;20061;-46
2022/07/25 01:04:28;;;;;;;8.38;2.90;;;21.40;1.00;;;;;;5003448;28;20080;-46
2022/07/25 01:06:55;;;;;;;5.20;3.08;;;21.60;1.00;;;;;;5000102;28;20041;-45
2022/07/25 01:09:22;;;;;;;5.43;3.47;;;21.50;1.00;;;;;;5000157;28;20564;-47
2022/07/25 01:11:47;;;;;;;10.23;3.13;;;21.90;1.00;;;;;;4999957;28;20053;-48
2022/07/25 01:14:13;;;;;;;5.15;3.30;;;21.30;1.00;;;;;;5000087;28;20042;-45
2022/07/25 01:16:40;;;;;;;4.75;3.70;;;23.00;1.00;;;;;;4999704;28;20045;-44
2022/07/25 01:19:06;;;;;;;7.25;3.50;;;21.50;1.00;;;;;;4999996;28;20577;-48
2022/07/25 01:21:32;;;;;;;4.82;3.53;;;21.40;1.00;;;;;;5012465;28;20045;-45
2022/07/25 01:23:59;;;;;;;4.72;3.17;;;21.40;1.00;;;;;;5011148;28;20042;-43
2022/07/25 01:26:25;;;;;;;7.75;3.42;;;21.50;1.00;;;;;;5000555;28;20053;-43
2022/07/25 01:28:51;;;;;;;9.63;4.13;;;21.30;1.00;;;;;;5000962;28;20082;-47
2022/07/25 01:31:17;;;;;;;7.32;4.22;;;21.30;1.00;;;;;;5000129;28;20557;-46
2022/07/25 01:33:42;;;;;;;6.32;3.97;;;21.10;1.00;;;;;;5016660;28;20045;-44
2022/07/25 01:36:08;;;;;;;6.50;4.40;;;21.50;1.00;;;;;;5008851;28;20052;-48
2022/07/25 01:38:38;;;;;;;6.25;4.15;;;21.10;1.00;;;;;;5003139;28;20053;-44
2022/07/25 01:41:04;;;;;;;7.75;3.90;;;22.80;1.00;;;;;;5009934;28;20135;-46
2022/07/25 01:43:29;;;;;;;7.72;4.13;;;21.40;1.00;;;;;;5004547;28;20128;-44
2022/07/25 01:45:55;;;;;;;6.82;4.10;;;21.10;1.00;;;;;;5004691;28;20033;-47
2022/07/25 01:48:20;;;;;;;5.47;3.83;;;21.20;1.00;;;;;;5007226;28;20038;-45
2022/07/25 01:50:46;;;;;;;5.88;3.65;;;21.10;1.00;;;;;;4998293;28;20498;-44
2022/07/25 01:53:12;;;;;;;4.97;3.85;;;21.00;1.00;;;;;;5013480;28;20348;-45
2022/07/25 01:55:39;;;;;;;6.88;4.18;;;21.00;1.00;;;;;;5012407;28;20119;-46
2022/07/25 01:58:06;;;;;;;8.68;4.00;;;21.40;1.00;;;;;;5004393;28;20080;-46
2022/07/25 02:00:31;;;;;;;8.43;4.80;;;21.00;1.00;;;;;;4999420;28;20501;-45
2022/07/25 02:05:41;;;;;;;9.13;4.38;;;20.90;1.00;;;;;;5005800;28;20056;-44
2022/07/25 02:08:09;;;;;;;9.10;4.55;;;21.50;1.00;;;;;;5004339;28;20045;-44
2022/07/25 02:10:35;;;;;;;8.77;4.32;;;21.00;1.00;;;;;;4999250;28;20050;-46
2022/07/25 02:13:01;;;;;;;5.93;3.83;;;21.10;1.00;;;;;;5002901;28;20065;-47
2022/07/25 02:15:28;;;;;;;5.85;3.97;;;20.90;1.00;;;;;;4981461;28;20128;-44
2022/07/25 02:17:54;;;;;;;5.88;4.35;;;21.00;1.00;;;;;;4999168;28;20446;-43
2022/07/25 02:20:19;;;;;;;7.43;4.43;;;21.00;1.00;;;;;;5002706;28;20506;-44
2022/07/25 02:22:47;;;;;;;6.15;4.20;;;21.50;1.00;;;;;;4999233;28;20045;-48
2022/07/25 02:25:13;;;;;;;6.93;3.80;;;20.70;1.00;;;;;;5003262;28;20042;-46
2022/07/25 02:27:40;;;;;;;6.43;4.55;;;22.70;1.00;;;;;;4999429;28;20045;-45
2022/07/25 02:30:07;;;;;;;7.85;3.92;;;20.70;1.00;;;;;;5007825;28;20047;-48
2022/07/25 02:32:33;;;;;;;6.80;3.72;;;20.60;2.60;;;;;;5002796;28;20069;-48
2022/07/25 02:34:59;;;;;;;6.38;3.70;;;20.50;11.20;;;;;;5003031;28;20046;-47
2022/07/25 02:37:24;;;;;;;5.38;3.97;;;20.50;26.50;;;;;;5003046;28;20317;-45
2022/07/25 02:39:50;;;;;;;5.28;3.92;;;20.40;35.70;;;;;;5003495;28;20089;-44
2022/07/25 02:42:18;;;;;;;5.55;3.63;;;20.20;43.20;;;;;;5002878;28;20117;-42
2022/07/25 02:44:44;;;;;;;6.15;3.80;;;20.40;55.30;;;;;;5003050;28;20685;-45
2022/07/25 02:47:09;;;;;;;6.15;3.92;;;20.60;55.70;;;;;;4990853;28;20157;-44
2022/07/25 02:49:37;;;;;;;6.30;3.72;;;20.10;53.60;;;;;;5010513;28;20129;-43
2022/07/25 02:52:02;;;;;;;5.80;4.05;;;20.10;54.00;;;;;;4984446;28;20084;-45
2022/07/25 02:54:28;;;;;;;8.30;4.28;;;20.00;63.90;;;;;;5019227;28;20482;-47
2022/07/25 02:56:54;;;;;;;6.35;3.75;;;20.10;67.80;;;;;;5021120;28;20045;-45
2022/07/25 02:59:19;;;;;;;6.57;3.90;;;19.90;73.80;;;;;;5003391;28;20469;-43
2022/07/25 03:01:45;;;;;;;7.20;4.03;;;19.90;77.30;;;;;;5002392;28;20081;-45
2022/07/25 03:04:12;;;;;;;6.32;3.80;;;19.80;76.70;;;;;;5011133;28;20069;-44
2022/07/25 03:06:39;;;;;;;5.95;4.00;;;20.90;78.60;;;;;;5002586;28;20057;-44
2022/07/25 03:09:04;;;;;;;5.35;3.90;;;19.70;79.70;;;;;;5002194;28;20137;-43
2022/07/25 03:11:30;;;;;;;8.02;4.50;;;19.60;82.00;;;;;;5002256;28;20120;-44
2022/07/25 03:13:56;;;;;;;11.55;4.57;;;20.10;81.80;;;;;;5002509;28;20050;-47
2022/07/25 03:16:22;;;;;;;8.10;4.53;;;19.60;79.50;;;;;;5002179;28;20042;-44
2022/07/25 03:18:48;;;;;;;5.78;3.97;;;19.70;78.50;;;;;;5002210;28;20045;-46
2022/07/25 03:21:15;;;;;;;4.75;3.83;;;19.80;80.20;;;;;;5002009;28;20041;-43
2022/07/25 03:23:41;;;;;;;7.72;4.35;;;19.70;82.50;;;;;;5001860;28;20417;-44
2022/07/25 03:26:06;;;;;;;6.00;4.53;;;19.60;84.90;;;;;;5001838;28;20053;-44
2022/07/25 03:28:32;;;;;;;5.88;4.18;;;19.50;85.00;;;;;;4982196;28;20494;-43
2022/07/25 03:30:58;;;;;;;6.38;4.68;;;19.80;86.20;;;;;;4996361;28;20457;-43
2022/07/25 03:33:23;;;;;;;6.10;4.38;;;21.90;87.40;;;;;;4996174;28;20215;-43
2022/07/25 03:35:49;;;;;;;9.15;4.65;;;20.60;90.10;;;;;;4996010;28;20052;-44
2022/07/25 03:38:15;;;;;;;7.88;4.75;;;20.30;89.10;;;;;;4995186;28;20050;-43
2022/07/25 03:40:40;;;;;;;6.47;4.50;;;19.60;88.70;;;;;;4995098;28;20037;-47
2022/07/25 03:43:06;;;;;;;10.82;5.05;;;21.10;88.50;;;;;;4994821;28;20038;-43
2022/07/25 03:45:33;;;;;;;8.70;5.43;;;19.70;87.10;;;;;;4995777;28;20046;-48
2022/07/25 03:48:00;;;;;;;7.80;5.72;;;19.60;86.10;;;;;;4995218;28;20744;-44
2022/07/25 03:50:25;;;;;;;8.63;5.63;;;19.70;85.40;;;;;;4995441;28;20583;-45
2022/07/25 03:52:54;;;;;;;7.70;5.82;;;19.80;84.70;;;;;;4997139;28;20040;-44
2022/07/25 03:55:20;;;;;;;7.35;5.70;;;19.80;82.30;;;;;;4996112;28;20084;-45
2022/07/25 03:57:45;;;;;;;8.05;5.97;;;19.90;79.80;;;;;;4996410;28;20328;-43
2022/07/25 04:00:11;;;;;;;7.57;6.38;;;19.80;78.20;;;;;;4999060;28;20339;-43
2022/07/25 04:02:37;;;;;;;7.10;5.53;;;19.90;77.70;;;;;;4996100;28;20068;-43
2022/07/25 04:05:04;;;;;;;7.80;6.03;;;19.90;78.00;;;;;;4994978;28;22274;-43
2022/07/25 04:07:32;;;;;;;9.00;5.90;;;19.80;78.70;;;;;;4998342;28;20115;-43
2022/07/25 04:09:58;;;;;;;9.52;6.97;;;20.20;79.50;;;;;;4995735;28;20069;-43
2022/07/25 04:12:23;;;;;;;8.15;6.45;;;20.00;78.60;;;;;;4995278;28;20502;-43
2022/07/25 04:14:49;;;;;;;11.00;7.13;;;21.70;78.60;;;;;;4977241;28;20085;-43
2022/07/25 04:17:15;;;;;;;9.55;7.03;;;19.90;78.20;;;;;;4995241;28;20048;-43
2022/07/25 04:19:41;;;;;;;9.95;7.38;;;20.40;78.90;;;;;;4993970;28;20044;-43
2022/07/25 04:22:07;;;;;;;10.55;7.43;;;19.80;78.20;;;;;;4993796;28;20042;-45
2022/07/25 04:24:32;;;;;;;10.65;8.40;;;20.90;77.30;;;;;;4995207;28;20603;-43
2022/07/25 04:26:58;;;;;;;9.68;8.52;;;19.80;76.50;;;;;;4994430;28;20069;-43
2022/07/25 04:29:28;;;;;;;8.77;7.75;;;19.90;75.50;;;;;;4998143;28;20046;-44
2022/07/25 04:31:53;;;;;;;10.57;8.27;;;20.00;75.20;;;;;;4993727;28;20365;-43
2022/07/25 04:34:19;;;;;;;12.05;8.48;;;22.10;74.60;;;;;;4976439;28;20096;-44
2022/07/25 04:36:45;;;;;;;10.20;8.32;;;20.50;73.50;;;;;;4995178;28;20046;-45
2022/07/25 04:39:11;;;;;;;11.35;8.63;;;20.00;72.60;;;;;;4993805;28;20367;-44
2022/07/25 04:41:36;;;;;;;11.63;8.80;;;20.40;71.80;;;;;;4995073;28;20220;-43
2022/07/25 04:44:03;;;;;;;11.45;9.70;;;20.10;70.90;;;;;;4993657;28;22669;-44
2022/07/25 04:46:28;;;;;;;15.45;9.63;;;20.10;70.40;;;;;;4977802;28;20050;-44
2022/07/25 04:48:54;;;;;;;10.93;9.07;;;20.10;70.90;;;;;;4993958;28;20604;-43
2022/07/25 04:51:20;;;;;;;11.38;9.93;;;20.00;71.80;;;;;;4994597;28;20060;-44
2022/07/25 04:53:47;;;;;;;14.63;10.38;;;20.20;71.40;;;;;;4996512;28;20406;-43
2022/07/25 04:56:13;;;;;;;11.40;9.40;;;20.10;69.40;;;;;;4994211;28;20282;-47
2022/07/25 04:58:39;;;;;;;14.95;10.10;;;20.10;66.60;;;;;;4996821;28;20057;-43
2022/07/25 05:01:06;;;;;;;12.13;9.73;;;22.00;67.40;;;;;;4995260;28;20053;-46
2022/07/25 05:03:31;;;;;;;11.15;9.95;;;20.90;66.90;;;;;;4994472;28;20124;-43
2022/07/25 05:05:57;;;;;;;14.70;10.52;;;20.30;68.30;;;;;;4976926;28;20437;-43
2022/07/25 05:08:25;;;;;;;13.50;9.98;;;20.30;67.70;;;;;;4994527;28;20034;-45
2022/07/25 05:10:50;;;;;;;12.35;9.60;;;21.90;66.80;;;;;;4995711;28;20069;-43
2022/07/25 05:13:16;;;;;;;18.33;11.38;;;20.40;66.30;;;;;;4993836;28;20437;-42
2022/07/25 05:15:42;;;;;;;12.80;10.45;;;20.40;65.20;;;;;;4995664;28;20498;-43
2022/07/25 05:18:07;;;;;;;11.82;10.27;;;20.40;63.00;;;;;;4994006;28;20187;-43
2022/07/25 05:20:33;;;;;;;12.40;11.10;;;20.60;62.00;;;;;;4996124;28;20102;-43
2022/07/25 05:23:02;;;;;;;12.68;10.35;;;20.90;63.10;;;;;;4995915;28;20037;-48
2022/07/25 05:25:28;;;;;;;11.45;10.23;;;20.50;62.00;;;;;;4993269;28;20069;-45
2022/07/25 05:27:56;;;;;;;12.45;11.15;;;20.50;59.60;;;;;;4996328;28;20463;-44
2022/07/25 05:30:21;;;;;;;13.90;11.00;;;20.70;58.80;;;;;;4995103;28;20053;-43
2022/07/25 05:32:47;;;;;;;12.25;10.45;;;20.70;59.50;;;;;;4992848;28;20053;-44
2022/07/25 05:35:13;;;;;;;13.90;11.05;;;20.80;57.80;;;;;;4994174;28;20058;-43
2022/07/25 05:37:42;;;;;;;14.82;10.80;;;20.60;55.90;;;;;;4993884;28;20041;-43
2022/07/25 05:40:08;;;;;;;13.10;10.57;;;20.50;54.40;;;;;;4992033;28;20069;-43
2022/07/25 05:42:34;;;;;;;12.55;10.90;;;20.70;53.40;;;;;;4996798;28;20506;-44
2022/07/25 05:45:02;;;;;;;14.00;11.00;;;20.70;52.20;;;;;;4995549;28;20038;-43
2022/07/25 05:47:28;;;;;;;13.48;11.38;;;20.70;51.00;;;;;;4993004;28;20285;-43
2022/07/25 05:49:53;;;;;;;13.88;11.23;;;22.40;51.40;;;;;;4993467;28;20515;-44
2022/07/25 05:52:19;;;;;;;13.52;10.88;;;20.80;49.80;;;;;;4993327;28;20213;-44
2022/07/25 05:54:45;;;;;;;12.90;11.13;;;20.70;48.90;;;;;;4995295;28;20042;-44
2022/07/25 05:57:10;;;;;;;13.00;11.43;;;20.90;48.60;;;;;;4993661;28;20157;-43
2022/07/25 05:59:38;;;;;;;13.65;10.38;;;20.90;48.10;;;;;;4997229;28;20141;-45
2022/07/25 06:02:04;;;;;;;12.13;10.85;;;20.90;47.20;;;;;;4996526;28;20469;-43
2022/07/25 06:04:29;;;;;;;19.52;11.85;;;21.20;46.40;;;;;;4995021;28;20049;-44
2022/07/25 06:06:57;;;;;;;15.18;11.95;;;21.00;45.80;;;;;;4999498;28;20467;-46
2022/07/25 06:09:23;;;;;;;12.95;10.95;;;23.20;46.70;;;;;;4997158;28;20045;-45
2022/07/25 06:11:49;;;;;;;16.02;11.63;;;22.60;44.30;;;;;;4999620;28;20928;-44
2022/07/25 06:14:15;;;;;;;14.63;11.07;;;21.20;39.70;;;;;;4999713;28;20042;-46
2022/07/25 06:16:42;;;;;;;13.15;10.68;;;21.20;35.30;;;;;;4999565;28;20068;-44
2022/07/25 06:19:07;;;;;;;14.73;11.13;;;21.30;34.80;;;;;;5001651;28;20093;-45
2022/07/25 06:21:35;;;;;;;11.98;10.38;;;22.00;34.50;;;;;;4997632;28;20119;-43
2022/07/25 06:24:01;;;;;;;14.27;11.32;;;21.40;32.60;;;;;;4999512;28;20551;-46
2022/07/25 06:26:27;;;;;;;11.90;10.70;;;21.60;32.80;;;;;;4981828;28;20065;-48
2022/07/25 06:28:55;;;;;;;11.77;10.48;;;21.60;35.80;;;;;;5001286;28;20038;-44
2022/07/25 06:31:20;;;;;;;11.75;9.73;;;21.80;28.80;;;;;;4981344;28;20092;-44
2022/07/25 06:33:46;;;;;;;12.40;10.40;;;21.70;24.50;;;;;;4997135;28;20208;-47
2022/07/25 06:36:12;;;;;;;11.60;10.40;;;21.90;20.30;;;;;;4998281;28;20053;-45
2022/07/25 06:38:38;;;;;;;13.60;9.98;;;23.70;17.90;;;;;;4998161;28;20414;-45
2022/07/25 06:41:03;;;;;;;12.73;9.63;;;21.90;16.90;;;;;;4996219;28;20096;-49
2022/07/25 06:43:29;;;;;;;12.63;10.07;;;22.00;14.80;;;;;;4995507;28;20061;-45
2022/07/25 06:45:55;;;;;;;12.38;9.57;;;22.00;14.40;;;;;;4997427;28;20161;-46
2022/07/25 06:48:23;;;;;;;11.35;9.85;;;22.00;12.40;;;;;;4996223;28;20046;-44
2022/07/25 06:50:50;;;;;;;14.15;10.65;;;22.10;11.10;;;;;;4996324;28;20092;-44
2022/07/25 06:53:16;;;;;;;12.32;9.80;;;22.10;9.40;;;;;;4995903;28;20050;-47
2022/07/25 06:55:41;;;;;;;14.25;9.95;;;22.20;10.40;;;;;;4995945;28;20034;-46
2022/07/25 06:58:09;;;;;;;16.73;9.98;;;22.30;7.10;;;;;;4979045;28;20101;-45
2022/07/25 07:00:34;;;;;;;12.20;10.07;;;22.40;4.80;;;;;;4998531;28;20681;-44
2022/07/25 07:03:01;;;;;;;11.50;9.35;;;22.40;1.00;;;;;;4996955;28;20053;-45
2022/07/25 07:05:30;;;;;;;12.60;9.55;;;22.60;1.00;;;;;;4996185;28;20038;-49
2022/07/25 07:07:57;;;;;;;14.00;9.77;;;22.60;1.00;;;;;;4995990;28;20104;-48
2022/07/25 07:10:23;;;;;;;12.90;9.18;;;23.00;1.00;;;;;;4996273;28;20034;-48
2022/07/25 07:13:01;;;;;;;16.38;9.45;;;22.70;1.00;;;;;;4996158;28;20068;-44
2022/07/25 07:15:26;;;;;;;13.52;10.30;;;22.80;1.00;;;;;;4995931;28;20132;-48
2022/07/25 07:17:53;;;;;;;13.40;10.07;;;22.90;1.00;;;;;;4996995;28;20057;-44
2022/07/25 07:20:18;;;;;;;11.77;9.55;;;22.60;1.00;;;;;;4995483;28;20045;-48
2022/07/25 07:22:46;;;;;;;11.48;9.65;;;24.20;1.00;;;;;;4977838;28;20044;-45
2022/07/25 07:25:15;;;;;;;15.48;8.55;;;22.80;1.00;;;;;;4996904;28;20060;-45
2022/07/25 07:27:41;;;;;;;15.35;8.98;;;23.00;1.00;;;;;;4995825;28;20053;-44
2022/07/25 07:30:10;;;;;;;12.40;8.23;;;23.80;1.00;;;;;;4997335;28;20608;-45
2022/07/25 07:32:36;;;;;;;12.48;8.35;;;25.00;1.00;;;;;;4979441;28;20607;-46
2022/07/25 07:35:01;;;;;;;9.90;8.68;;;25.20;1.00;;;;;;4995024;28;20201;-44
2022/07/25 07:37:27;;;;;;;10.95;8.07;;;25.10;1.00;;;;;;4997909;28;20597;-48
2022/07/25 07:39:53;;;;;;;8.05;7.20;;;25.60;1.00;;;;;;4996414;28;20042;-48
2022/07/25 07:42:18;;;;;;;10.70;7.22;;;24.70;1.00;;;;;;4996122;28;20091;-45
2022/07/25 07:44:44;;;;;;;11.70;7.30;;;25.20;1.00;;;;;;4995708;28;20060;-48
2022/07/25 07:47:13;;;;;;;11.45;8.18;;;26.20;1.00;;;;;;4995356;28;20034;-45
2022/07/25 07:49:40;;;;;;;8.05;6.45;;;27.80;99.90;;;;;;4994846;28;20061;-48
2022/07/25 07:52:06;;;;;;;9.48;6.53;;;28.20;99.90;;;;;;4995506;28;20065;-47
2022/07/25 07:57:16;;;;;;;10.30;5.43;;;27.80;99.90;;;;;;4996046;28;20057;-46
2022/07/25 07:59:42;;;;;;;7.28;4.95;;;27.30;99.90;;;;;;4994210;28;20518;-47
2022/07/25 08:02:07;;;;;;;5.88;4.43;;;26.80;99.90;;;;;;4996161;28;20081;-45
2022/07/25 08:04:36;;;;;;;6.53;4.57;;;26.70;99.90;;;;;;4995713;28;20060;-48
2022/07/25 08:07:02;;;;;;;8.05;5.10;;;26.60;99.90;;;;;;4994219;28;20129;-45
2022/07/25 08:09:28;;;;;;;7.32;4.40;;;26.60;99.90;;;;;;4995736;28;20046;-46
2022/07/25 08:11:53;;;;;;;7.38;4.07;;;25.90;99.90;;;;;;4977611;28;20096;-48
2022/07/25 08:14:19;;;;;;;9.50;4.50;;;25.80;99.90;;;;;;4993499;28;20046;-44
2022/07/25 08:16:45;;;;;;;5.15;3.22;;;25.40;99.90;;;;;;4994105;28;20052;-49
2022/07/25 08:19:10;;;;;;;6.57;4.00;;;25.40;99.90;;;;;;4995654;28;20061;-47
2022/07/25 08:21:36;;;;;;;9.82;3.72;;;25.30;99.90;;;;;;4978367;28;20042;-47
2022/07/25 08:24:02;;;;;;;7.35;3.22;;;24.90;99.90;;;;;;4996940;28;20050;-46
2022/07/25 08:26:29;;;;;;;8.13;4.00;;;24.90;99.90;;;;;;4995290;28;20048;-45
2022/07/25 08:28:56;;;;;;;5.97;3.15;;;24.50;99.90;;;;;;4994977;28;20112;-47
2022/07/25 08:31:21;;;;;;;5.60;2.63;;;24.30;99.90;;;;;;4997399;28;20057;-47
2022/07/25 08:33:47;;;;;;;5.88;3.15;;;24.30;99.90;;;;;;4994236;28;20029;-47
2022/07/25 08:36:13;;;;;;;5.53;3.30;;;23.90;99.90;;;;;;4998294;28;20136;-47
2022/07/25 08:38:38;;;;;;;6.78;3.53;;;23.70;99.90;;;;;;4997380;28;20057;-47
2022/07/25 08:41:04;;;;;;;6.43;3.05;;;23.60;99.90;;;;;;4994284;28;20046;-49
2022/07/25 08:43:31;;;;;;;6.15;3.13;;;23.70;99.90;;;;;;4993539;28;20049;-46
2022/07/25 08:46:00;;;;;;;5.50;2.67;;;23.50;99.90;;;;;;4994801;28;20048;-47
2022/07/25 08:48:26;;;;;;;4.55;2.03;;;23.40;99.90;;;;;;4995474;28;20042;-45
2022/07/25 08:50:53;;;;;;;9.38;2.05;;;23.30;99.90;;;;;;4992982;28;20526;-47
2022/07/25 08:53:20;;;;;;;4.53;2.15;;;23.10;99.90;;;;;;4991806;28;20824;-44
2022/07/25 08:55:46;;;;;;;4.57;1.77;;;22.80;99.90;;;;;;4989972;28;20206;-47
2022/07/25 08:58:14;;;;;;;6.35;2.10;;;22.90;99.90;;;;;;4993203;28;20712;-45
2022/07/25 09:00:40;;;;;;;4.20;2.15;;;23.00;99.90;;;;;;4995413;28;20046;-46
2022/07/25 09:03:08;;;;;;;6.15;2.58;;;23.10;99.90;;;;;;4996117;28;20061;-48
2022/07/25 09:05:35;;;;;;;3.85;1.55;;;23.30;99.90;;;;;;4994786;28;20169;-44
2022/07/25 09:08:13;;;;;;;5.68;1.85;;;23.30;99.90;;;;;;4993122;28;20132;-48
2022/07/25 09:10:44;;;;;;;3.65;1.70;;;23.20;99.90;;;;;;4993316;28;20034;-47
2022/07/25 09:13:15;;;;;;;4.03;1.92;;;23.00;99.90;;;;;;4994516;28;20038;-45
2022/07/25 09:15:48;;;;;;;3.83;1.70;;;22.90;99.90;;;;;;4961124;28;20045;-47
2022/07/25 09:18:16;;;;;;;8.68;2.15;;;22.70;99.90;;;;;;4995368;28;20285;-45
2022/07/25 09:20:53;;;;;;;6.28;1.80;;;22.60;99.90;;;;;;4994975;28;20202;-49
2022/07/25 09:23:36;;;;;;;7.07;2.15;;;22.30;99.90;;;;;;4993419;28;20518;-46
2022/07/25 09:26:08;;;;;;;5.03;1.83;;;22.50;99.90;;;;;;4993769;28;20529;-49
2022/07/25 09:28:41;;;;;;;3.78;1.70;;;22.70;99.90;;;;;;4994591;28;20362;-47
2022/07/25 09:31:08;;;;;;;5.57;2.10;;;22.80;99.90;;;;;;4993849;28;20148;-48
2022/07/25 09:33:43;;;;;;;3.88;1.88;;;22.60;99.90;;;;;;4993775;28;20045;-48
2022/07/25 09:36:09;;;;;;;7.68;1.95;;;23.00;99.90;;;;;;4993865;28;20042;-47
2022/07/25 09:38:35;;;;;;;5.93;2.10;;;22.90;99.90;;;;;;4991806;28;20116;-49
2022/07/25 09:41:01;;;;;;;4.03;1.80;;;23.00;99.90;;;;;;4997955;28;20506;-47
2022/07/25 09:43:37;;;;;;;3.80;2.00;;;23.00;99.90;;;;;;4981087;28;20083;-46
2022/07/25 09:46:04;;;;;;;4.35;2.33;;;23.20;99.90;;;;;;4998364;28;20054;-49
2022/07/25 09:48:30;;;;;;;6.60;2.28;;;23.10;99.90;;;;;;4996972;28;20053;-47
2022/07/25 09:50:57;;;;;;;6.47;2.55;;;23.00;99.90;;;;;;4998055;28;20053;-47
2022/07/25 09:53:23;;;;;;;4.55;2.40;;;23.00;99.90;;;;;;4997973;28;20061;-44
2022/07/25 09:55:49;;;;;;;9.80;2.30;;;22.80;99.90;;;;;;4998191;28;20056;-46
2022/07/25 09:58:15;;;;;;;5.72;2.25;;;22.70;99.90;;;;;;4998733;28;20045;-49
2022/07/25 10:00:42;;;;;;;9.23;2.20;;;22.80;99.90;;;;;;4980764;28;20053;-44
2022/07/25 10:03:27;;;;;;;7.55;2.60;;;22.50;99.90;;;;;;4981056;28;20128;-48
2022/07/25 10:06:30;;;;;;;6.38;2.70;;;22.70;99.90;;;;;;4998199;28;20126;-45
2022/07/25 10:08:56;;;;;;;7.40;2.60;;;22.80;99.90;;;;;;4999184;28;20099;-44
2022/07/25 10:11:24;;;;;;;6.45;2.42;;;23.50;99.90;;;;;;4979979;28;20034;-44
2022/07/25 10:13:51;;;;;;;6.15;2.40;;;22.60;99.90;;;;;;4997685;28;20038;-47
2022/07/25 10:16:25;;;;;;;4.68;2.15;;;22.40;99.90;;;;;;4998084;28;20046;-47
2022/07/25 10:18:57;;;;;;;6.68;2.30;;;22.60;99.90;;;;;;4997495;28;20568;-44
2022/07/25 10:21:24;;;;;;;7.15;2.55;;;22.70;99.90;;;;;;4998416;28;20418;-47
2022/07/25 10:24:06;;;;;;;7.43;2.33;;;22.70;99.90;;;;;;4997038;28;20042;-48
2022/07/25 10:26:35;;;;;;;6.25;2.42;;;22.90;99.90;;;;;;5000080;28;20041;-43
2022/07/25 10:29:07;;;;;;;6.95;2.10;;;22.60;99.90;;;;;;4998635;28;20037;-46
2022/07/25 10:31:34;;;;;;;6.38;2.40;;;22.50;99.90;;;;;;4997826;28;20052;-46
2022/07/25 10:34:06;;;;;;;8.77;2.55;;;22.50;99.90;;;;;;4998510;28;20072;-48
2022/07/25 10:36:45;;;;;;;;;;;22.30;99.90;;;;;;4999116;28;20042;-45
2022/07/25 10:39:13;;;;;;;7.53;2.00;;;22.10;99.90;;;;;;4996918;28;20362;-44
2022/07/25 10:41:42;;;;;;;9.85;2.20;;;22.30;99.90;;;;;;4996392;28;20049;-44
2022/07/25 10:44:13;;;;;;;7.90;2.20;;;22.40;99.90;;;;;;4996797;28;20842;-46
2022/07/25 10:46:39;;;;;;;7.55;2.10;;;22.70;99.90;;;;;;4998910;28;20054;-49
2022/07/25 10:49:06;;;;;;;7.05;2.13;;;22.80;99.90;;;;;;4998332;28;20045;-47
2022/07/25 10:51:36;;;;;;;7.25;2.22;;;23.00;99.90;;;;;;4998715;28;20052;-45
2022/07/25 10:54:33;;;;;;;5.00;1.80;;;23.30;99.90;;;;;;4996213;28;20050;-45
2022/07/25 10:56:59;;;;;;;6.55;1.80;;;23.40;99.90;;;;;;4916583;29;20111;-47
2022/07/25 10:59:37;;;;;;;9.35;2.60;;;23.60;99.90;;;;;;4919084;29;20138;-45
2022/07/25 11:02:05;;;;;;;7.82;2.25;;;23.50;99.90;;;;;;4918389;29;20095;-47
2022/07/25 11:04:32;;;;;;;8.85;2.50;;;23.30;99.90;;;;;;4917395;28;20067;-44
2022/07/25 11:07:11;;;;;;;13.35;2.83;;;23.40;99.90;;;;;;4917766;29;20067;-45
2022/07/25 11:09:37;;;;;;;9.75;2.55;;;23.10;99.90;;;;;;4919608;29;20410;-44
2022/07/25 11:12:03;;;;;;;6.63;2.15;;;24.80;99.90;;;;;;4918449;29;20663;-46
2022/07/25 11:14:36;;;;;;;9.63;2.85;;;23.00;99.90;;;;;;4918199;29;20560;-49
2022/07/25 11:17:21;;;;;;;9.10;2.50;;;22.80;99.90;;;;;;4918922;29;20056;-49
2022/07/25 11:19:56;;;;;;;7.43;2.50;;;23.00;99.90;;;;;;4918290;28;20090;-46
2022/07/25 11:22:26;;;;;;;8.90;2.30;;;23.30;99.90;;;;;;4916799;28;20047;-47
2022/07/25 11:24:52;;;;;;;7.18;2.20;;;23.50;99.90;;;;;;4918615;29;20588;-48
2022/07/25 11:27:25;;;;;;;9.43;2.60;;;23.70;99.90;;;;;;4919333;28;20059;-46
2022/07/25 11:29:51;;;;;;;10.18;3.17;;;23.30;99.90;;;;;;4918055;28;20051;-47
2022/07/25 11:32:18;;;;;;;8.27;2.13;;;23.40;99.90;;;;;;4921365;28;20138;-48
2022/07/25 11:34:47;;;;;;;10.45;2.67;;;23.10;99.90;;;;;;4979675;28;20050;-45
2022/07/25 11:37:14;;;;;;;15.43;4.82;;;22.80;99.90;;;;;;4976102;28;20050;-46
2022/07/25 11:39:42;;;;;;;8.82;2.38;;;23.00;99.90;;;;;;4978728;28;20046;-47
2022/07/25 11:42:11;;;;;;;8.68;2.90;;;23.10;99.90;;;;;;4962136;28;20133;-48
2022/07/25 11:44:41;;;;;;;8.25;1.95;;;23.10;99.90;;;;;;4976307;28;20069;-47
2022/07/25 11:47:09;;;;;;;10.88;2.33;;;24.20;99.90;;;;;;4978218;28;20049;-45
2022/07/25 11:49:46;;;;;;;11.73;3.28;;;23.40;99.90;;;;;;4977289;28;20061;-49
2022/07/25 11:52:30;;;;;;;8.05;1.92;;;25.70;99.90;;;;;;4977811;28;20521;-46
2022/07/25 11:55:11;;;;;;;9.00;1.90;;;23.60;99.90;;;;;;4978135;28;20034;-45
2022/07/25 11:57:39;;;;;;;7.27;1.80;;;23.10;99.90;;;;;;4976543;28;20048;-46
2022/07/25 12:00:16;;;;;;;9.45;2.08;;;23.40;99.90;;;;;;4977860;28;20119;-46
2022/07/25 12:02:42;;;;;;;7.30;1.95;;;23.40;99.90;;;;;;4975852;28;20066;-46
2022/07/25 12:05:11;;;;;;;8.85;1.70;;;23.40;99.90;;;;;;4960132;28;20468;-44
2022/07/25 12:07:39;;;;;;;6.38;1.83;;;23.10;99.90;;;;;;4977118;28;20096;-48
2022/07/25 12:10:11;;;;;;;9.80;2.40;;;23.30;99.90;;;;;;4975464;28;20430;-44
2022/07/25 12:12:53;;;;;;;9.35;1.85;;;23.60;99.90;;;;;;4976566;28;20044;-47
2022/07/25 12:15:20;;;;;;;;;;;23.50;99.90;;;;;;4975935;28;20050;-45
2022/07/25 12:17:46;;;;;;;8.95;2.42;;;23.90;99.90;;;;;;4976273;28;19926;-44
2022/07/25 12:20:36;;;;;;;10.07;1.95;;;24.30;99.90;;;;;;4976439;28;20073;-45
2022/07/25 12:23:05;;;;;;;11.27;2.22;;;24.60;99.90;;;;;;4977536;28;20483;-45
2022/07/25 12:25:32;;;;;;;9.52;1.90;;;24.30;99.90;;;;;;4975880;28;20113;-45
2022/07/25 12:27:59;;;;;;;7.03;2.15;;;24.90;99.90;;;;;;4978333;28;20502;-48
2022/07/25 12:30:26;;;;;;;8.45;2.13;;;23.90;99.90;;;;;;4977996;28;20039;-44
2022/07/25 12:32:52;;;;;;;7.95;2.10;;;23.70;99.90;;;;;;4987739;28;20130;-44
2022/07/25 12:35:18;;;;;;;8.18;2.10;;;25.90;99.90;;;;;;4996248;28;20425;-44
2022/07/25 12:37:46;;;;;;;7.85;2.10;;;24.20;99.90;;;;;;4995194;28;20070;-45
2022/07/25 12:40:13;;;;;;;9.15;2.20;;;23.50;99.90;;;;;;4995640;28;20050;-46
2022/07/25 12:42:39;;;;;;;7.95;1.83;;;23.40;99.90;;;;;;4996178;28;20045;-46
2022/07/25 12:45:07;;;;;;;7.13;1.90;;;23.20;99.90;;;;;;4993811;28;20050;-46
2022/07/25 12:47:33;;;;;;;5.15;1.52;;;23.30;99.90;;;;;;4994969;28;20042;-43
2022/07/25 12:49:59;;;;;;;6.60;2.20;;;23.30;99.90;;;;;;4994680;28;20635;-44
2022/07/25 12:52:27;;;;;;;9.40;2.13;;;23.20;99.90;;;;;;4996835;28;20445;-46